createdAt,value
2018-03-14T00:02:07.303Z,7.80
2018-03-14T00:04:34.883Z,7.80
2018-03-14T00:07:02.628Z,7.80
2018-03-14T00:09:30.375Z,7.80
2018-03-14T00:11:57.805Z,7.90
2018-03-14T00:14:25.236Z,7.90
2018-03-14T00:16:53.427Z,7.90
2018-03-14T00:19:20.857Z,7.90
2018-03-14T00:21:49.048Z,7.80
2018-03-14T00:24:17.244Z,7.80
2018-03-14T00:26:45.535Z,7.70
2018-03-14T00:29:13.093Z,7.70
2018-03-14T00:31:40.545Z,7.80
2018-03-14T00:34:07.984Z,7.70
2018-03-14T00:36:35.400Z,7.70
2018-03-14T00:39:02.920Z,7.70
2018-03-14T00:41:30.559Z,7.70
2018-03-14T00:43:58.147Z,7.70
2018-03-14T00:46:25.598Z,7.70
2018-03-14T00:48:53.230Z,7.70
2018-03-14T00:51:20.675Z,7.70
2018-03-14T00:53:48.178Z,7.60
2018-03-14T00:56:15.627Z,7.70
2018-03-14T00:58:43.094Z,7.60
2018-03-14T01:01:10.544Z,7.60
2018-03-14T01:03:38.106Z,7.70
2018-03-14T01:06:05.860Z,7.60
2018-03-14T01:08:33.498Z,7.70
2018-03-14T01:11:01.083Z,7.70
2018-03-14T01:13:28.515Z,7.70
2018-03-14T01:15:55.941Z,7.70
2018-03-14T01:18:23.451Z,7.70
2018-03-14T01:20:50.981Z,7.70
2018-03-14T01:23:18.576Z,7.60
2018-03-14T01:25:46.004Z,7.60
2018-03-14T01:28:13.490Z,7.60
2018-03-14T01:30:40.927Z,7.50
2018-03-14T01:33:08.489Z,7.50
2018-03-14T01:35:35.924Z,7.50
2018-03-14T01:38:03.351Z,7.50
2018-03-14T01:40:30.780Z,7.50
2018-03-14T01:42:58.331Z,7.50
2018-03-14T01:45:25.952Z,7.40
2018-03-14T01:47:53.549Z,7.40
2018-03-14T01:50:21.306Z,7.40
2018-03-14T01:52:48.760Z,7.40
2018-03-14T01:55:16.216Z,7.50
2018-03-14T01:57:43.984Z,7.50
2018-03-14T02:00:11.437Z,7.50
2018-03-14T02:02:38.892Z,7.50
2018-03-14T02:05:06.328Z,7.50
2018-03-14T02:07:33.799Z,7.50
2018-03-14T02:10:01.240Z,7.50
2018-03-14T02:12:28.717Z,7.40
2018-03-14T02:14:56.161Z,7.40
2018-03-14T02:17:23.632Z,7.40
2018-03-14T02:19:51.068Z,7.50
2018-03-14T02:22:18.535Z,7.40
2018-03-14T02:24:45.998Z,7.40
2018-03-14T02:27:13.634Z,7.30
2018-03-14T02:29:41.215Z,7.30
2018-03-14T02:32:08.645Z,7.30
2018-03-14T02:34:36.080Z,7.30
2018-03-14T02:37:03.583Z,7.20
2018-03-14T02:39:31.039Z,7.30
2018-03-14T02:41:58.805Z,7.30
2018-03-14T02:44:26.240Z,7.30
2018-03-14T02:46:53.708Z,7.30
2018-03-14T02:49:21.149Z,7.30
2018-03-14T02:51:48.564Z,7.30
2018-03-14T02:54:16.981Z,7.40
2018-03-14T02:56:44.476Z,7.30
2018-03-14T02:59:11.912Z,7.30
2018-03-14T03:01:39.383Z,7.40
2018-03-14T03:04:07.151Z,7.40
2018-03-14T03:06:34.603Z,7.30
2018-03-14T03:09:02.051Z,7.30
2018-03-14T03:11:29.512Z,7.30
2018-03-14T03:13:56.941Z,7.30
2018-03-14T03:16:24.378Z,7.30
2018-03-14T03:18:51.812Z,7.30
2018-03-14T03:21:19.340Z,7.30
2018-03-14T03:23:46.784Z,7.30
2018-03-14T03:26:14.244Z,7.30
2018-03-14T03:28:41.702Z,7.10
2018-03-14T03:31:09.117Z,7.00
2018-03-14T03:33:36.610Z,7.00
2018-03-14T03:36:04.033Z,6.90
2018-03-14T03:38:31.461Z,6.90
2018-03-14T03:40:58.988Z,6.90
2018-03-14T03:43:26.422Z,6.90
2018-03-14T03:45:53.900Z,6.90
2018-03-14T03:48:21.528Z,6.90
2018-03-14T03:50:49.019Z,6.90
2018-03-14T03:53:16.472Z,6.80
2018-03-14T03:55:43.944Z,6.80
2018-03-14T03:58:11.384Z,6.70
2018-03-14T04:00:38.979Z,6.80
2018-03-14T04:03:06.400Z,6.70
2018-03-14T04:05:34.040Z,6.80
2018-03-14T04:08:01.601Z,6.80
2018-03-14T04:10:29.077Z,6.80
2018-03-14T04:12:56.520Z,6.80
2018-03-14T04:15:23.962Z,6.80
2018-03-14T04:17:51.388Z,6.80
2018-03-14T04:20:18.828Z,6.80
2018-03-14T04:22:46.252Z,6.90
2018-03-14T04:25:13.812Z,6.90
2018-03-14T04:27:41.435Z,6.90
2018-03-14T04:30:09.638Z,6.90
2018-03-14T04:32:37.096Z,6.90
2018-03-14T04:35:04.738Z,6.90
2018-03-14T04:37:32.319Z,6.90
2018-03-14T04:39:59.786Z,6.90
2018-03-14T04:42:27.209Z,6.90
2018-03-14T04:44:54.632Z,6.90
2018-03-14T04:47:22.857Z,6.90
2018-03-14T04:49:50.532Z,6.90
2018-03-14T04:52:18.096Z,6.90
2018-03-14T04:54:45.676Z,6.90
2018-03-14T04:57:13.093Z,6.80
2018-03-14T04:59:40.531Z,6.90
2018-03-14T05:02:08.012Z,6.90
2018-03-14T05:04:35.563Z,6.90
2018-03-14T05:07:03.006Z,6.90
2018-03-14T05:09:30.487Z,6.90
2018-03-14T05:11:58.124Z,6.90
2018-03-14T05:14:25.709Z,6.90
2018-03-14T05:16:53.471Z,6.90
2018-03-14T05:19:20.891Z,6.80
2018-03-14T05:21:48.375Z,6.80
2018-03-14T05:24:16.016Z,6.80
2018-03-14T05:26:43.516Z,6.80
2018-03-14T05:29:11.056Z,6.80
2018-03-14T05:31:38.696Z,6.80
2018-03-14T05:34:06.173Z,6.90
2018-03-14T05:36:34.372Z,7.00
2018-03-14T05:39:01.896Z,7.00
2018-03-14T05:41:29.438Z,7.00
2018-03-14T05:43:57.014Z,7.10
2018-03-14T05:46:24.440Z,7.00
2018-03-14T05:48:51.864Z,7.00
2018-03-14T05:51:19.310Z,7.00
2018-03-14T05:53:46.848Z,7.00
2018-03-14T05:56:14.496Z,7.00
2018-03-14T05:58:42.055Z,7.00
2018-03-14T06:01:09.481Z,7.00
2018-03-14T06:03:36.975Z,7.00
2018-03-14T06:06:04.409Z,7.00
2018-03-14T06:08:31.840Z,7.00
2018-03-14T06:10:59.348Z,7.00
2018-03-14T06:13:26.782Z,7.00
2018-03-14T06:15:54.259Z,7.00
2018-03-14T06:18:21.715Z,7.00
2018-03-14T06:20:49.146Z,7.10
2018-03-14T06:23:16.572Z,7.10
2018-03-14T06:25:44.083Z,7.10
2018-03-14T06:28:11.849Z,7.20
2018-03-14T06:30:39.482Z,7.20
2018-03-14T06:33:07.004Z,7.20
2018-03-14T06:35:34.424Z,7.20
2018-03-14T06:38:01.859Z,7.20
2018-03-14T06:40:29.300Z,7.20
2018-03-14T06:42:56.823Z,7.30
2018-03-14T06:45:24.248Z,7.30
2018-03-14T06:47:51.755Z,7.40
2018-03-14T06:50:19.177Z,7.40
2018-03-14T06:52:46.716Z,7.40
2018-03-14T06:55:14.356Z,7.40
2018-03-14T06:57:41.936Z,7.50
2018-03-14T07:00:21.069Z,7.50
2018-03-14T07:02:48.519Z,7.50
2018-03-14T07:05:27.965Z,7.50
2018-03-14T07:07:55.396Z,7.60
2018-03-14T07:10:22.832Z,7.70
2018-03-14T07:12:50.328Z,7.70
2018-03-14T07:15:17.961Z,7.70
2018-03-14T07:17:45.440Z,7.70
2018-03-14T07:20:12.880Z,7.70
2018-03-14T07:22:40.388Z,7.60
2018-03-14T07:25:07.820Z,7.70
2018-03-14T07:27:35.256Z,7.70
2018-03-14T07:30:02.866Z,7.70
2018-03-14T07:32:30.462Z,7.60
2018-03-14T07:34:57.923Z,7.60
2018-03-14T07:37:25.508Z,7.60
2018-03-14T07:39:53.144Z,7.60
2018-03-14T07:42:20.648Z,7.70
2018-03-14T07:44:48.084Z,7.70
2018-03-14T07:47:15.641Z,7.80
2018-03-14T07:49:43.384Z,7.80
2018-03-14T07:52:10.823Z,7.80
2018-03-14T07:54:38.319Z,7.90
2018-03-14T07:57:05.952Z,8.00
2018-03-14T07:59:33.408Z,8.10
2018-03-14T08:02:00.845Z,8.20
2018-03-14T08:04:29.059Z,8.50
2018-03-14T08:06:56.509Z,8.50
2018-03-14T08:09:23.979Z,8.50
2018-03-14T08:11:51.441Z,8.50
2018-03-14T08:14:18.892Z,8.60
2018-03-14T08:16:46.580Z,8.70
2018-03-14T08:19:14.108Z,8.80
2018-03-14T08:21:41.543Z,8.80
2018-03-14T08:24:09.012Z,8.90
2018-03-14T08:26:36.449Z,9.00
2018-03-14T08:29:03.931Z,9.10
2018-03-14T08:31:31.572Z,9.00
2018-03-14T08:33:59.049Z,9.00
2018-03-14T08:36:26.514Z,9.10
2018-03-14T08:38:53.967Z,9.20
2018-03-14T08:41:21.437Z,9.20
2018-03-14T08:43:48.872Z,9.20
2018-03-14T08:46:16.328Z,9.30
2018-03-14T08:48:43.792Z,9.30
2018-03-14T08:51:11.208Z,9.40
2018-03-14T08:53:38.688Z,9.50
2018-03-14T08:56:06.264Z,9.70
2018-03-14T08:58:33.692Z,9.90
2018-03-14T09:01:01.129Z,10.10
2018-03-14T09:03:28.623Z,10.20
2018-03-14T09:05:56.068Z,10.30
2018-03-14T09:08:23.502Z,10.30
2018-03-14T09:10:50.995Z,10.40
2018-03-14T09:13:18.452Z,10.30
2018-03-14T09:15:46.217Z,10.30
2018-03-14T09:18:13.648Z,10.20
2018-03-14T09:20:41.120Z,10.40
2018-03-14T09:23:08.584Z,10.40
2018-03-14T09:25:36.209Z,10.60
2018-03-14T09:28:04.416Z,10.80
2018-03-14T09:30:31.848Z,10.80
2018-03-14T09:32:59.275Z,10.90
2018-03-14T09:35:26.700Z,11.00
2018-03-14T09:37:54.239Z,11.10
2018-03-14T09:40:21.668Z,11.30
2018-03-14T09:42:49.151Z,11.40
2018-03-14T09:45:16.614Z,11.60
2018-03-14T09:47:44.061Z,11.80
2018-03-14T09:50:11.496Z,12.00
2018-03-14T09:52:38.907Z,12.00
2018-03-14T09:55:06.331Z,12.10
2018-03-14T09:57:33.792Z,12.20
2018-03-14T10:00:01.349Z,12.30
2018-03-14T10:02:29.539Z,12.60
2018-03-14T10:04:57.075Z,12.50
2018-03-14T10:07:24.577Z,12.70
2018-03-14T10:09:52.096Z,12.80
2018-03-14T10:12:19.528Z,12.80
2018-03-14T10:14:47.008Z,12.70
2018-03-14T10:17:14.463Z,12.70
2018-03-14T10:19:41.896Z,12.90
2018-03-14T10:22:09.380Z,13.10
2018-03-14T10:24:37.011Z,13.20
2018-03-14T10:27:05.344Z,13.40
2018-03-14T10:29:32.803Z,13.50
2018-03-14T10:32:00.420Z,13.60
2018-03-14T10:34:28.684Z,13.70
2018-03-14T10:36:56.171Z,13.90
2018-03-14T10:39:24.639Z,14.00
2018-03-14T10:41:52.412Z,13.80
2018-03-14T10:44:19.839Z,13.80
2018-03-14T10:46:47.316Z,13.80
2018-03-14T10:49:14.759Z,14.10
2018-03-14T10:51:42.224Z,14.20
2018-03-14T10:54:09.664Z,14.30
2018-03-14T10:56:37.086Z,14.50
2018-03-14T10:59:04.613Z,14.60
2018-03-14T11:01:37.774Z,14.80
2018-03-14T11:04:05.188Z,15.00
2018-03-14T11:06:32.608Z,15.10
2018-03-14T11:09:00.131Z,15.30
2018-03-14T11:11:27.615Z,15.50
2018-03-14T11:13:55.110Z,15.70
2018-03-14T11:16:22.634Z,15.90
2018-03-14T11:18:50.289Z,16.10
2018-03-14T11:21:17.848Z,16.30
2018-03-14T11:23:45.304Z,16.40
2018-03-14T11:26:12.760Z,16.30
2018-03-14T11:28:40.182Z,16.30
2018-03-14T11:31:07.680Z,16.20
2018-03-14T11:33:35.125Z,16.10
2018-03-14T11:36:02.626Z,15.90
2018-03-14T11:38:31.714Z,15.90
2018-03-14T11:40:59.243Z,15.90
2018-03-14T11:43:27.902Z,15.90
2018-03-14T11:45:55.430Z,16.20
2018-03-14T11:48:24.296Z,16.60
2018-03-14T11:50:52.720Z,17.30
2018-03-14T11:53:20.308Z,17.30
2018-03-14T11:55:47.738Z,17.30
2018-03-14T11:58:15.158Z,17.40
2018-03-14T12:00:43.501Z,17.90
2018-03-14T12:03:11.056Z,17.80
2018-03-14T12:05:38.481Z,18.00
2018-03-14T12:08:05.904Z,18.00
2018-03-14T12:10:33.324Z,18.20
2018-03-14T12:13:00.879Z,18.40
2018-03-14T12:15:28.311Z,18.80
2018-03-14T12:17:55.896Z,19.20
2018-03-14T12:20:23.517Z,19.40
2018-03-14T12:22:51.113Z,19.60
2018-03-14T12:25:18.736Z,19.80
2018-03-14T12:27:46.168Z,20.00
2018-03-14T12:30:13.721Z,20.20
2018-03-14T12:32:41.205Z,20.40
2018-03-14T12:35:09.597Z,20.40
2018-03-14T12:37:37.899Z,20.10
2018-03-14T12:40:05.486Z,20.10
2018-03-14T12:42:33.132Z,20.10
2018-03-14T12:45:01.165Z,20.60
2018-03-14T12:47:28.748Z,20.90
2018-03-14T12:49:56.769Z,21.00
2018-03-14T12:52:24.579Z,21.30
2018-03-14T12:54:52.654Z,21.50
2018-03-14T12:57:20.803Z,21.70
2018-03-14T12:59:48.355Z,21.40
2018-03-14T13:02:15.839Z,21.20
2018-03-14T13:04:43.271Z,21.20
2018-03-14T13:07:10.687Z,21.20
2018-03-14T13:09:38.119Z,21.10
2018-03-14T13:12:05.537Z,21.10
2018-03-14T13:14:33.120Z,21.70
2018-03-14T13:17:00.569Z,22.80
2018-03-14T13:19:28.219Z,24.20
2018-03-14T13:21:55.628Z,25.40
2018-03-14T13:24:23.042Z,26.80
2018-03-14T13:26:50.669Z,28.20
2018-03-14T13:29:18.164Z,29.20
2018-03-14T13:31:45.619Z,30.00
2018-03-14T13:34:13.999Z,31.00
2018-03-14T13:36:41.464Z,32.10
2018-03-14T13:39:08.719Z,33.00
2018-03-14T13:41:36.347Z,33.40
2018-03-14T13:44:03.742Z,33.20
2018-03-14T13:46:31.172Z,33.00
2018-03-14T13:48:58.715Z,32.10
2018-03-14T13:51:26.140Z,30.70
2018-03-14T13:53:53.651Z,29.40
2018-03-14T13:56:21.064Z,28.10
2018-03-14T13:58:48.567Z,28.00
2018-03-14T14:01:15.980Z,27.80
2018-03-14T14:03:43.480Z,27.60
2018-03-14T14:06:10.892Z,27.00
2018-03-14T14:08:38.388Z,27.60
2018-03-14T14:11:05.848Z,28.70
2018-03-14T14:13:33.308Z,29.60
2018-03-14T14:16:00.765Z,30.90
2018-03-14T14:18:28.190Z,31.80
2018-03-14T14:20:55.591Z,32.90
2018-03-14T14:23:23.128Z,33.90
2018-03-14T14:25:50.578Z,34.80
2018-03-14T14:28:18.021Z,35.30
2018-03-14T14:30:45.495Z,35.40
2018-03-14T14:33:12.946Z,36.10
2018-03-14T14:35:40.412Z,36.60
2018-03-14T14:38:07.828Z,36.60
2018-03-14T14:40:35.328Z,36.90
2018-03-14T14:43:02.755Z,37.10
2018-03-14T14:45:30.232Z,36.30
2018-03-14T14:47:57.692Z,34.80
2018-03-14T14:50:25.152Z,32.90
2018-03-14T14:52:52.598Z,31.20
2018-03-14T14:55:20.033Z,29.60
2018-03-14T14:57:47.441Z,28.20
2018-03-14T15:00:14.876Z,27.40
2018-03-14T15:02:42.428Z,28.00
2018-03-14T15:05:09.879Z,29.10
2018-03-14T15:07:37.292Z,30.10
2018-03-14T15:10:04.704Z,31.40
2018-03-14T15:12:32.154Z,32.50
2018-03-14T15:14:59.570Z,33.40
2018-03-14T15:17:27.792Z,34.90
2018-03-14T15:19:55.425Z,34.90
2018-03-14T15:22:22.847Z,35.20
2018-03-14T15:24:50.361Z,34.70
2018-03-14T15:27:17.800Z,32.90
2018-03-14T15:29:45.244Z,32.00
2018-03-14T15:32:12.820Z,31.70
2018-03-14T15:34:40.272Z,31.10
2018-03-14T15:37:07.696Z,29.80
2018-03-14T15:39:35.112Z,28.20
2018-03-14T15:42:02.561Z,27.00
2018-03-14T15:44:30.096Z,26.10
2018-03-14T15:46:57.556Z,25.10
2018-03-14T15:49:24.971Z,24.40
2018-03-14T15:51:52.477Z,23.70
2018-03-14T15:54:20.072Z,23.00
2018-03-14T15:56:48.824Z,22.50
2018-03-14T15:59:16.303Z,21.90
2018-03-14T16:01:43.748Z,21.40
2018-03-14T16:04:11.232Z,20.80
2018-03-14T16:06:38.640Z,20.40
2018-03-14T16:09:06.059Z,20.10
2018-03-14T16:11:34.251Z,19.40
2018-03-14T16:14:01.674Z,19.30
2018-03-14T16:16:30.108Z,19.30
2018-03-14T16:18:57.544Z,19.30
2018-03-14T16:21:24.948Z,19.30
2018-03-14T16:23:52.370Z,19.00
2018-03-14T16:26:19.869Z,18.70
2018-03-14T16:28:47.385Z,18.60
2018-03-14T16:31:14.796Z,18.60
2018-03-14T16:33:42.239Z,18.10
2018-03-14T16:36:09.754Z,17.90
2018-03-14T16:38:37.183Z,17.60
2018-03-14T16:41:04.665Z,17.20
2018-03-14T16:43:32.074Z,16.90
2018-03-14T16:45:59.500Z,16.60
2018-03-14T16:48:27.036Z,16.40
2018-03-14T16:50:54.460Z,16.00
2018-03-14T16:53:21.965Z,15.70
2018-03-14T16:55:49.388Z,15.70
2018-03-14T16:58:16.862Z,15.80
2018-03-14T17:00:44.321Z,15.70
2018-03-14T17:03:11.775Z,15.90
2018-03-14T17:05:39.233Z,15.80
2018-03-14T17:08:06.685Z,15.70
2018-03-14T17:10:34.104Z,15.40
2018-03-14T17:13:01.515Z,15.10
2018-03-14T17:15:29.058Z,14.90
2018-03-14T17:17:56.519Z,14.60
2018-03-14T17:20:23.972Z,14.30
2018-03-14T17:22:51.393Z,14.20
2018-03-14T17:25:18.815Z,13.90
2018-03-14T17:27:46.232Z,13.70
2018-03-14T17:30:14.720Z,13.40
2018-03-14T17:32:42.140Z,13.40
2018-03-14T17:35:09.632Z,13.20
2018-03-14T17:37:37.886Z,12.90
2018-03-14T17:40:05.375Z,12.90
2018-03-14T17:42:32.922Z,12.80
2018-03-14T17:45:00.375Z,12.60
2018-03-14T17:47:27.813Z,12.40
2018-03-14T17:49:55.287Z,12.30
2018-03-14T17:52:23.447Z,12.20
2018-03-14T17:54:51.102Z,12.20
2018-03-14T17:57:18.584Z,12.00
2018-03-14T17:59:46.208Z,11.90
2018-03-14T18:02:14.413Z,11.70
2018-03-14T18:04:41.867Z,11.70
2018-03-14T18:07:09.301Z,11.70
2018-03-14T18:09:36.733Z,11.70
2018-03-14T18:12:04.164Z,11.60
2018-03-14T18:14:31.625Z,11.40
2018-03-14T18:16:59.054Z,11.30
2018-03-14T18:19:26.604Z,11.30
2018-03-14T18:21:54.064Z,11.30
2018-03-14T18:24:21.520Z,11.20
2018-03-14T18:26:48.937Z,11.10
2018-03-14T18:29:16.374Z,11.10
2018-03-14T18:31:43.885Z,10.90
2018-03-14T18:34:11.335Z,10.90
2018-03-14T18:36:38.756Z,10.90
2018-03-14T18:39:06.187Z,10.80
2018-03-14T18:41:33.608Z,10.80
2018-03-14T18:44:01.041Z,10.70
2018-03-14T18:46:28.556Z,10.70
2018-03-14T18:48:56.080Z,10.80
2018-03-14T18:51:23.536Z,10.60
2018-03-14T18:53:50.997Z,10.50
2018-03-14T18:56:18.448Z,10.40
2018-03-14T18:58:45.908Z,10.40
2018-03-14T19:01:13.364Z,10.40
2018-03-14T19:03:41.121Z,10.30
2018-03-14T19:06:08.548Z,10.30
2018-03-14T19:08:36.040Z,10.20
2018-03-14T19:11:03.492Z,10.30
2018-03-14T19:13:30.932Z,10.20
2018-03-14T19:15:58.409Z,10.10
2018-03-14T19:18:25.840Z,10.10
2018-03-14T19:20:53.276Z,10.00
2018-03-14T19:23:20.688Z,9.90
2018-03-14T19:25:48.148Z,9.80
2018-03-14T19:28:15.696Z,9.80
2018-03-14T19:30:43.154Z,9.80
2018-03-14T19:33:10.607Z,9.80
2018-03-14T19:35:38.057Z,9.80
2018-03-14T19:38:05.481Z,9.90
2018-03-14T19:40:32.933Z,9.80
2018-03-14T19:43:00.420Z,9.80
2018-03-14T19:45:27.892Z,9.70
2018-03-14T19:47:55.311Z,9.70
2018-03-14T19:50:22.791Z,9.60
2018-03-14T19:52:50.215Z,9.40
2018-03-14T19:55:17.636Z,9.40
2018-03-14T19:57:46.084Z,9.40
2018-03-14T20:00:13.540Z,9.40
2018-03-14T20:02:40.968Z,9.50
2018-03-14T20:05:08.379Z,9.40
2018-03-14T20:07:35.818Z,9.40
2018-03-14T20:10:03.369Z,9.40
2018-03-14T20:12:30.823Z,9.30
2018-03-14T20:14:58.245Z,9.40
2018-03-14T20:17:25.735Z,9.40
2018-03-14T20:19:53.170Z,9.40
2018-03-14T20:22:20.600Z,9.30
2018-03-14T20:24:48.095Z,9.30
2018-03-14T20:27:15.528Z,9.20
2018-03-14T20:29:42.956Z,9.10
2018-03-14T20:32:11.401Z,9.00
2018-03-14T20:34:38.847Z,9.00
2018-03-14T20:37:06.285Z,9.10
2018-03-14T20:39:33.762Z,9.10
2018-03-14T20:42:01.187Z,9.00
2018-03-14T20:44:28.621Z,8.90
2018-03-14T20:46:56.951Z,8.80
2018-03-14T20:49:24.393Z,8.80
2018-03-14T20:51:51.980Z,8.70
2018-03-14T20:54:19.437Z,8.60
2018-03-14T20:56:47.184Z,8.40
2018-03-14T20:59:14.644Z,8.20
2018-03-14T21:01:42.271Z,8.20
2018-03-14T21:04:09.764Z,8.20
2018-03-14T21:06:37.360Z,8.10
2018-03-14T21:09:05.083Z,7.90
2018-03-14T21:11:32.535Z,7.80
2018-03-14T21:14:00.180Z,7.70
2018-03-14T21:16:27.644Z,7.80
2018-03-14T21:18:55.081Z,7.70
2018-03-14T21:21:22.614Z,7.60
2018-03-14T21:23:50.128Z,7.50
2018-03-14T21:26:17.882Z,7.40
2018-03-14T21:28:45.329Z,7.30
2018-03-14T21:31:12.814Z,7.20
2018-03-14T21:33:40.569Z,7.10
2018-03-14T21:36:08.049Z,7.00
2018-03-14T21:38:35.796Z,7.00
2018-03-14T21:41:03.227Z,7.00
2018-03-14T21:43:30.677Z,7.00
2018-03-14T21:45:58.109Z,6.90
2018-03-14T21:48:25.560Z,6.80
2018-03-14T21:50:53.071Z,6.70
2018-03-14T21:53:20.836Z,6.60
2018-03-14T21:55:48.489Z,6.50
2018-03-14T21:58:16.049Z,6.50
2018-03-14T22:00:43.504Z,6.40
2018-03-14T22:03:11.148Z,6.30
2018-03-14T22:05:38.604Z,6.30
2018-03-14T22:08:06.181Z,6.20
2018-03-14T22:10:33.629Z,6.10
2018-03-14T22:13:01.107Z,6.00
2018-03-14T22:15:28.552Z,6.00
2018-03-14T22:17:55.978Z,5.90
2018-03-14T22:20:23.464Z,5.90
2018-03-14T22:22:50.932Z,5.90
2018-03-14T22:25:18.376Z,5.90
2018-03-14T22:27:45.810Z,6.00
2018-03-14T22:30:13.238Z,5.90
2018-03-14T22:32:40.745Z,5.90
2018-03-14T22:35:08.168Z,6.00
2018-03-14T22:37:35.604Z,6.10
2018-03-14T22:40:03.030Z,6.10
2018-03-14T22:42:30.480Z,6.10
2018-03-14T22:44:57.932Z,6.10
2018-03-14T22:47:25.415Z,6.00
2018-03-14T22:49:52.844Z,5.90
2018-03-14T22:52:20.404Z,5.80
2018-03-14T22:54:48.153Z,5.70
2018-03-14T22:57:15.575Z,5.70
2018-03-14T22:59:43.072Z,5.70
2018-03-14T23:02:10.537Z,5.80
2018-03-14T23:04:38.291Z,5.80
2018-03-14T23:07:05.729Z,5.80
2018-03-14T23:09:33.208Z,5.80
2018-03-14T23:12:00.638Z,5.80
2018-03-14T23:14:28.069Z,5.70
2018-03-14T23:16:55.500Z,5.70
2018-03-14T23:19:23.032Z,5.60
2018-03-14T23:21:50.781Z,5.60
2018-03-14T23:24:18.248Z,5.50
2018-03-14T23:26:45.684Z,5.50
2018-03-14T23:29:13.152Z,5.50
2018-03-14T23:31:40.587Z,5.50
2018-03-14T23:34:08.020Z,5.40
2018-03-14T23:36:35.454Z,5.50
2018-03-14T23:39:02.897Z,5.50
2018-03-14T23:41:30.348Z,5.50
2018-03-14T23:43:57.778Z,5.50
2018-03-14T23:46:25.260Z,5.40
2018-03-14T23:48:52.721Z,5.30
2018-03-14T23:51:20.168Z,5.20
2018-03-14T23:53:47.616Z,5.20
2018-03-14T23:56:15.052Z,5.20
2018-03-14T23:58:42.634Z,5.20
